createdAt,value
2022-12-18T00:01:07.260Z,100225.03
2022-12-18T00:03:34.916Z,100224.19
2022-12-18T00:06:02.495Z,100217.19
2022-12-18T00:08:29.427Z,100219.03
2022-12-18T00:11:00.593Z,100225.75
2022-12-18T00:13:28.360Z,100222.22
2022-12-18T00:15:56.569Z,100231.72
2022-12-18T00:18:26.450Z,100227.59
2022-12-18T00:20:53.007Z,100212.69
2022-12-18T00:23:19.551Z,100247.84
2022-12-18T00:25:46.138Z,100272.03
2022-12-18T00:28:12.674Z,99545.91
2022-12-18T00:30:39.271Z,99559.66
2022-12-18T00:33:05.883Z,99543.34
2022-12-18T00:35:33.091Z,99552.75
2022-12-18T00:37:59.684Z,99551.06
2022-12-18T00:40:26.275Z,99560.47
2022-12-18T00:42:58.754Z,99562.19
2022-12-18T00:45:31.632Z,99567.28
2022-12-18T00:47:58.482Z,99564.72
2022-12-18T00:50:26.351Z,99561.31
2022-12-18T00:52:53.205Z,99563.03
2022-12-18T00:55:19.870Z,99567.31
2022-12-18T00:57:46.519Z,99554.44
2022-12-18T01:00:15.190Z,99571.56
2022-12-18T01:02:42.381Z,99577.56
2022-12-18T01:05:10.453Z,99581.00
2022-12-18T01:07:36.990Z,99565.56
2022-12-18T01:10:04.263Z,99582.69
2022-12-18T01:12:30.967Z,99586.97
2022-12-18T01:14:57.653Z,99580.09
2022-12-18T01:17:24.349Z,99586.91
2022-12-18T01:19:50.972Z,99588.63
2022-12-18T01:22:17.631Z,99590.28
2022-12-18T01:24:44.232Z,99615.19
2022-12-18T01:27:10.964Z,99620.31
2022-12-18T01:29:37.576Z,99622.84
2022-12-18T01:32:04.387Z,99600.59
2022-12-18T01:34:31.150Z,99614.31
2022-12-18T01:36:57.804Z,99626.25
2022-12-18T01:39:24.425Z,99623.66
2022-12-18T01:42:03.057Z,99623.59
2022-12-18T01:45:02.029Z,99625.28
2022-12-18T01:47:45.759Z,99634.75
2022-12-18T01:50:15.612Z,99630.44
2022-12-18T01:52:44.548Z,99634.72
2022-12-18T01:55:12.393Z,99652.66
2022-12-18T01:57:40.703Z,99622.72
2022-12-18T02:00:15.195Z,99641.53
2022-12-18T02:02:43.334Z,99629.53
2022-12-18T02:05:13.044Z,99655.16
2022-12-18T02:07:45.387Z,99639.78
2022-12-18T02:10:26.239Z,99656.03
2022-12-18T02:13:02.512Z,99661.03
2022-12-18T02:15:45.435Z,99661.06
2022-12-18T02:18:25.678Z,99668.69
2022-12-18T02:21:17.137Z,99669.63
2022-12-18T02:24:04.940Z,99660.16
2022-12-18T02:26:39.023Z,99667.06
2022-12-18T02:29:13.284Z,99677.28
2022-12-18T02:31:54.004Z,99666.19
2022-12-18T02:34:23.533Z,99666.09
2022-12-18T02:36:50.792Z,99681.53
2022-12-18T02:39:19.002Z,99679.78
2022-12-18T02:41:45.691Z,99703.78
2022-12-18T02:44:13.607Z,99696.19
2022-12-18T02:46:49.373Z,99697.06
2022-12-18T02:49:38.391Z,99713.22
2022-12-18T02:52:10.987Z,99714.72
2022-12-18T02:54:51.396Z,99717.41
2022-12-18T02:57:31.606Z,99728.56
2022-12-18T03:00:12.121Z,99737.06
2022-12-18T03:02:48.059Z,99747.44
2022-12-18T03:05:28.571Z,99746.56
2022-12-18T03:08:11.301Z,99728.41
2022-12-18T03:10:44.046Z,99761.69
2022-12-18T03:13:23.131Z,99767.66
2022-12-18T03:15:52.369Z,99772.94
2022-12-18T03:18:25.108Z,99772.03
2022-12-18T03:20:53.062Z,99767.66
2022-12-18T03:23:26.141Z,99771.06
2022-12-18T03:25:55.362Z,99787.34
2022-12-18T03:28:23.402Z,99780.56
2022-12-18T03:30:54.826Z,99791.59
2022-12-18T03:33:26.933Z,99789.09
2022-12-18T03:35:53.546Z,99782.25
2022-12-18T03:38:20.492Z,99800.22
2022-12-18T03:41:08.359Z,99793.13
2022-12-18T03:43:47.628Z,99797.63
2022-12-18T03:46:35.793Z,99801.84
2022-12-18T03:49:14.505Z,99811.13
2022-12-18T03:51:51.544Z,99817.16
2022-12-18T03:54:19.226Z,99793.03
2022-12-18T03:56:49.278Z,99814.50
2022-12-18T03:59:17.295Z,99823.84
2022-12-18T04:01:47.749Z,99800.66
2022-12-18T04:04:15.890Z,99823.72
2022-12-18T04:06:42.886Z,99835.97
2022-12-18T04:09:09.409Z,99838.28
2022-12-18T04:11:35.964Z,99841.72
2022-12-18T04:14:05.974Z,99839.06
2022-12-18T04:16:33.819Z,99857.78
2022-12-18T04:19:00.370Z,99848.41
2022-12-18T04:21:26.999Z,99869.81
2022-12-18T04:23:53.572Z,99864.56
2022-12-18T04:26:20.204Z,99868.84
2022-12-18T04:28:46.943Z,99877.25
2022-12-18T04:31:14.216Z,99879.91
2022-12-18T04:33:41.267Z,99883.41
2022-12-18T04:36:08.372Z,99886.94
2022-12-18T04:38:35.031Z,99892.09
2022-12-18T04:41:01.670Z,99910.13
2022-12-18T04:43:28.366Z,99901.56
2022-12-18T04:45:55.060Z,99897.25
2022-12-18T04:48:21.924Z,99908.50
2022-12-18T04:50:49.092Z,99907.25
2022-12-18T04:53:15.786Z,99922.56
2022-12-18T04:55:42.347Z,99920.53
2022-12-18T04:58:08.898Z,99914.75
2022-12-18T05:00:36.285Z,99936.19
2022-12-18T05:03:03.829Z,99931.16
2022-12-18T05:05:30.573Z,99933.75
2022-12-18T05:07:57.146Z,99938.78
2022-12-18T05:10:23.888Z,99942.25
2022-12-18T05:12:59.564Z,99943.94
2022-12-18T05:15:32.704Z,99945.75
2022-12-18T05:17:59.978Z,99966.16
2022-12-18T05:20:27.904Z,99954.53
2022-12-18T05:22:55.197Z,99959.31
2022-12-18T05:25:22.291Z,99975.53
2022-12-18T05:27:48.914Z,99985.63
2022-12-18T05:30:16.730Z,99969.44
2022-12-18T05:32:43.585Z,99977.16
2022-12-18T05:35:11.743Z,99987.47
2022-12-18T05:37:42.965Z,99990.66
2022-12-18T05:40:10.862Z,99995.94
2022-12-18T05:42:37.691Z,100001.94
2022-12-18T05:45:05.299Z,100001.59
2022-12-18T05:47:32.108Z,100000.00
2022-12-18T05:49:58.910Z,100009.38
2022-12-18T05:52:25.624Z,100025.72
2022-12-18T05:54:52.272Z,100020.31
2022-12-18T05:57:18.830Z,100029.72
2022-12-18T05:59:45.485Z,100047.78
2022-12-18T06:02:12.161Z,100048.63
2022-12-18T06:04:39.487Z,100045.28
2022-12-18T06:07:06.150Z,100049.63
2022-12-18T06:09:33.345Z,100069.84
2022-12-18T06:12:00.109Z,100071.81
2022-12-18T06:14:26.726Z,100058.94
2022-12-18T06:16:53.424Z,100057.81
2022-12-18T06:19:20.075Z,100074.88
2022-12-18T06:21:46.845Z,100051.72
2022-12-18T06:24:13.460Z,100067.94
2022-12-18T06:26:40.330Z,100085.13
2022-12-18T06:29:07.231Z,100085.13
2022-12-18T06:31:34.011Z,100091.78
2022-12-18T06:34:03.906Z,100085.22
2022-12-18T06:36:30.592Z,100074.31
2022-12-18T06:38:58.544Z,100108.06
2022-12-18T06:41:25.386Z,100108.06
2022-12-18T06:43:55.565Z,100134.53
2022-12-18T06:46:24.838Z,100125.22
2022-12-18T06:48:51.554Z,100125.25
2022-12-18T06:51:22.236Z,100119.06
2022-12-18T06:53:48.964Z,100136.16
2022-12-18T06:56:15.666Z,100126.84
2022-12-18T06:58:42.603Z,100125.81
2022-12-18T07:01:11.888Z,100147.53
2022-12-18T07:03:41.002Z,100139.88
2022-12-18T07:06:14.977Z,100144.72
2022-12-18T07:08:41.528Z,100152.75
2022-12-18T07:11:08.094Z,100154.13
2022-12-18T07:13:34.679Z,100157.84
2022-12-18T07:16:15.215Z,100153.47
2022-12-18T07:18:43.120Z,100160.47
2022-12-18T07:21:11.656Z,100153.28
2022-12-18T07:23:38.867Z,100135.44
2022-12-18T07:26:10.460Z,100163.41
2022-12-18T07:28:38.426Z,100175.72
2022-12-18T07:31:10.441Z,100171.22
2022-12-18T07:33:39.293Z,100185.09
2022-12-18T07:36:07.913Z,100192.91
2022-12-18T07:38:36.212Z,100184.13
2022-12-18T07:41:03.733Z,100185.81
2022-12-18T07:43:33.999Z,100210.69
2022-12-18T07:46:00.781Z,100214.09
2022-12-18T07:48:27.437Z,100215.09
2022-12-18T07:50:54.305Z,100216.47
2022-12-18T07:53:20.863Z,100229.34
2022-12-18T07:56:18.358Z,100233.28
2022-12-18T07:58:34.652Z,100222.25
2022-12-18T08:01:05.460Z,100259.75
2022-12-18T08:03:33.265Z,100241.91
2022-12-18T08:06:04.427Z,100242.28
2022-12-18T08:08:31.681Z,100231.59
2022-12-18T08:10:58.373Z,100252.88
2022-12-18T08:13:25.606Z,100273.84
2022-12-18T08:16:06.977Z,100266.06
2022-12-18T08:18:38.098Z,100273.75
2022-12-18T08:21:10.928Z,100266.59
2022-12-18T08:23:42.300Z,100285.09
2022-12-18T08:26:10.720Z,100288.94
2022-12-18T08:28:37.276Z,100274.44
2022-12-18T08:31:04.134Z,100279.53
2022-12-18T08:33:31.335Z,100269.81
2022-12-18T08:35:59.498Z,100286.00
2022-12-18T08:38:26.158Z,100298.84
2022-12-18T08:41:06.786Z,100280.50
2022-12-18T08:43:52.589Z,100288.06
2022-12-18T08:46:19.797Z,100281.13
2022-12-18T08:48:47.039Z,100277.81
2022-12-18T08:51:13.873Z,100293.69
2022-12-18T08:53:40.910Z,100302.84
2022-12-18T08:56:08.427Z,100299.47
2022-12-18T08:58:35.092Z,100320.28
2022-12-18T09:01:03.182Z,100314.38
2022-12-18T09:03:30.226Z,100324.38
2022-12-18T09:05:56.888Z,100322.16
2022-12-18T09:08:23.537Z,100318.72
2022-12-18T09:10:50.994Z,100321.81
2022-12-18T09:13:18.111Z,100331.72
2022-12-18T09:15:46.721Z,100331.69
2022-12-18T09:18:14.745Z,100337.03
2022-12-18T09:20:41.663Z,100341.31
2022-12-18T09:23:09.034Z,100334.97
2022-12-18T09:25:36.890Z,100352.28
2022-12-18T09:28:05.637Z,100346.44
2022-12-18T09:30:34.410Z,100360.91
2022-12-18T09:33:01.776Z,100345.94
2022-12-18T09:35:28.912Z,100354.38
2022-12-18T09:37:55.759Z,100362.84
2022-12-18T09:40:25.846Z,100361.16
2022-12-18T09:42:59.738Z,100367.81
2022-12-18T09:45:26.700Z,100359.09
2022-12-18T09:47:55.225Z,100385.59
2022-12-18T09:50:30.622Z,100377.84
2022-12-18T09:52:58.071Z,100381.25
2022-12-18T09:55:39.454Z,100367.75
2022-12-18T09:58:13.027Z,100369.22
2022-12-18T10:00:39.896Z,100379.72
2022-12-18T10:03:12.056Z,100373.72
2022-12-18T10:05:42.366Z,100378.06
2022-12-18T10:08:17.972Z,100381.59
2022-12-18T10:10:54.244Z,100398.03
2022-12-18T10:13:47.338Z,100403.06
2022-12-18T10:16:17.640Z,100405.03
2022-12-18T10:18:50.268Z,100404.69
2022-12-18T10:21:20.614Z,100406.59
2022-12-18T10:24:20.844Z,100401.28
2022-12-18T10:26:48.194Z,100419.66
2022-12-18T10:29:16.798Z,100416.00
2022-12-18T10:31:44.009Z,100418.59
2022-12-18T10:34:19.809Z,100400.91
2022-12-18T10:36:48.629Z,100421.50
2022-12-18T10:39:18.165Z,100403.06
2022-12-18T10:41:44.733Z,100420.78
2022-12-18T10:44:19.058Z,100421.03
2022-12-18T10:46:47.581Z,100426.97
2022-12-18T10:49:28.759Z,100410.53
2022-12-18T10:52:18.174Z,100420.06
2022-12-18T10:54:53.639Z,100430.97
2022-12-18T10:57:32.467Z,100424.03
2022-12-18T11:00:00.822Z,100423.78
2022-12-18T11:02:36.408Z,100400.78
2022-12-18T11:05:06.334Z,100431.16
2022-12-18T11:07:51.167Z,100431.22
2022-12-18T11:10:19.196Z,100438.44
2022-12-18T11:12:46.023Z,100452.38
2022-12-18T11:15:26.266Z,100452.88
2022-12-18T11:17:53.276Z,100440.94
2022-12-18T11:20:36.472Z,100464.19
2022-12-18T11:23:06.795Z,100456.59
2022-12-18T11:25:35.728Z,100479.13
2022-12-18T11:28:26.957Z,100469.72
2022-12-18T11:31:21.765Z,100479.53
2022-12-18T11:34:30.975Z,100501.16
2022-12-18T11:36:59.318Z,100469.91
2022-12-18T11:39:43.277Z,100494.03
2022-12-18T11:42:49.986Z,100496.03
2022-12-18T11:45:27.035Z,100500.59
2022-12-18T11:47:59.207Z,100507.63
2022-12-18T11:50:41.027Z,100492.38
2022-12-18T11:53:11.784Z,100516.72
2022-12-18T11:56:17.530Z,100500.38
2022-12-18T11:58:48.450Z,100508.56
2022-12-18T12:01:31.493Z,100518.81
2022-12-18T12:04:19.744Z,100523.59
2022-12-18T12:07:05.710Z,100536.31
2022-12-18T12:09:47.371Z,100531.03
2022-12-18T12:12:48.726Z,100535.00
2022-12-18T12:15:37.011Z,100540.09
2022-12-18T12:18:30.316Z,100540.03
2022-12-18T12:21:26.111Z,100540.47
2022-12-18T12:24:39.156Z,100553.50
2022-12-18T12:27:36.776Z,100540.78
2022-12-18T12:30:09.088Z,100557.53
2022-12-18T12:33:01.208Z,100556.78
2022-12-18T12:35:40.176Z,100563.38
2022-12-18T12:38:10.867Z,100570.50
2022-12-18T12:40:52.390Z,100575.19
2022-12-18T12:43:50.311Z,100578.75
2022-12-18T12:46:19.591Z,100562.13
2022-12-18T12:48:53.593Z,100573.66
2022-12-18T12:51:23.104Z,100586.69
2022-12-18T12:53:50.351Z,100578.88
2022-12-18T12:56:19.228Z,100595.00
2022-12-18T12:59:36.578Z,100604.63
2022-12-18T13:02:18.293Z,100623.81
2022-12-18T13:04:51.944Z,100621.56
2022-12-18T13:07:33.017Z,100614.88
2022-12-18T13:10:19.074Z,100618.63
2022-12-18T13:13:06.540Z,100624.41
2022-12-18T13:15:38.286Z,100633.78
2022-12-18T13:18:09.695Z,100640.53
2022-12-18T13:20:50.802Z,100626.25
2022-12-18T13:23:27.088Z,100639.22
2022-12-18T13:25:55.884Z,100647.50
2022-12-18T13:28:34.807Z,100656.44
2022-12-18T13:31:02.524Z,100644.94
2022-12-18T13:34:24.414Z,100662.75
2022-12-18T13:36:35.186Z,100669.41
2022-12-18T13:39:28.600Z,100673.53
2022-12-18T13:42:05.954Z,100664.66
2022-12-18T13:44:39.917Z,100685.47
2022-12-18T13:47:29.545Z,100679.00
2022-12-18T13:49:56.282Z,100692.69
2022-12-18T13:52:26.508Z,100696.38
2022-12-18T13:54:56.244Z,100706.91
2022-12-18T13:57:27.261Z,100699.38
2022-12-18T13:59:53.875Z,100702.19
2022-12-18T14:02:26.099Z,100711.97
2022-12-18T14:04:53.542Z,100719.75
2022-12-18T14:07:23.309Z,100718.53
2022-12-18T14:10:01.921Z,100726.78
2022-12-18T14:12:53.413Z,100724.41
2022-12-18T14:15:45.390Z,100719.69
2022-12-18T14:18:33.766Z,100739.41
2022-12-18T14:21:02.694Z,100729.81
2022-12-18T14:23:40.816Z,100736.22
2022-12-18T14:26:30.886Z,100739.00
2022-12-18T14:28:58.878Z,100772.41
2022-12-18T14:31:27.557Z,100760.16
2022-12-18T14:33:54.713Z,100778.53
2022-12-18T14:36:29.416Z,100755.78
2022-12-18T14:38:57.905Z,100814.28
2022-12-18T14:41:25.813Z,100771.66
2022-12-18T14:43:53.936Z,100776.41
2022-12-18T14:46:45.486Z,100799.25
2022-12-18T14:49:23.733Z,100794.41
2022-12-18T14:51:53.190Z,100790.78
2022-12-18T14:54:21.310Z,100795.28
2022-12-18T14:57:01.692Z,100807.91
2022-12-18T14:59:28.914Z,100800.41
2022-12-18T15:02:06.274Z,100811.59
2022-12-18T15:04:47.887Z,100809.81
2022-12-18T15:07:23.460Z,100811.44
2022-12-18T15:10:08.313Z,100815.38
2022-12-18T15:12:34.858Z,100817.91
2022-12-18T15:15:01.430Z,100834.97
2022-12-18T15:17:28.158Z,100830.25
2022-12-18T15:20:01.918Z,100836.84
2022-12-18T15:22:28.475Z,100827.56
2022-12-18T15:24:56.739Z,100821.91
2022-12-18T15:27:32.398Z,100826.53
2022-12-18T15:30:08.825Z,100825.06
2022-12-18T15:32:37.768Z,100837.81
2022-12-18T15:35:17.943Z,100847.19
2022-12-18T15:37:45.136Z,100862.38
2022-12-18T15:40:17.392Z,100858.59
2022-12-18T15:43:03.291Z,100863.84
2022-12-18T15:45:29.754Z,100880.84
2022-12-18T15:47:56.399Z,100875.09
2022-12-18T15:50:23.237Z,100881.28
2022-12-18T15:52:51.262Z,100870.50
2022-12-18T15:55:42.010Z,100878.94
2022-12-18T15:58:10.274Z,100871.13
2022-12-18T16:00:39.896Z,100885.19
2022-12-18T16:03:07.024Z,100901.47
2022-12-18T16:05:34.079Z,100891.72
2022-12-18T16:08:00.669Z,100914.97
2022-12-18T16:10:27.548Z,100918.44
2022-12-18T16:12:54.199Z,100919.28
2022-12-18T16:15:24.442Z,100928.91
2022-12-18T16:17:52.874Z,100924.34
2022-12-18T16:20:23.358Z,100942.22
2022-12-18T16:22:50.400Z,100941.38
2022-12-18T16:25:25.427Z,100958.94
2022-12-18T16:27:52.820Z,100953.84
2022-12-18T16:30:22.120Z,100963.41
2022-12-18T16:32:48.851Z,100972.53
2022-12-18T16:35:17.360Z,100937.00
2022-12-18T16:37:44.424Z,100950.44
2022-12-18T16:40:13.806Z,100980.06
2022-12-18T16:42:42.002Z,100975.94
2022-12-18T16:45:10.278Z,100984.09
2022-12-18T16:47:37.030Z,100980.25
2022-12-18T16:50:04.565Z,100958.38
2022-12-18T16:52:31.115Z,100985.66
2022-12-18T16:54:57.741Z,100978.41
2022-12-18T16:57:25.396Z,100979.78
2022-12-18T16:59:52.641Z,101002.91
2022-12-18T17:02:24.652Z,101007.16
2022-12-18T17:04:54.487Z,101007.31
2022-12-18T17:07:21.251Z,101003.63
2022-12-18T17:09:47.910Z,101020.03
2022-12-18T17:12:14.515Z,101009.09
2022-12-18T17:14:41.253Z,101011.28
2022-12-18T17:17:20.888Z,101002.47
2022-12-18T17:19:48.189Z,101026.72
2022-12-18T17:22:14.761Z,101030.03
2022-12-18T17:24:41.339Z,101031.16
2022-12-18T17:27:08.986Z,101042.34
2022-12-18T17:29:35.733Z,101032.78
2022-12-18T17:32:02.282Z,101041.69
2022-12-18T17:34:30.125Z,101048.75
2022-12-18T17:36:57.551Z,101059.06
2022-12-18T17:39:24.265Z,101046.66
2022-12-18T17:41:50.904Z,101061.53
2022-12-18T17:44:18.032Z,101068.78
2022-12-18T17:46:46.245Z,101055.66
2022-12-18T17:49:14.162Z,101074.81
2022-12-18T17:51:43.090Z,101061.69
2022-12-18T17:54:10.662Z,101061.75
2022-12-18T17:56:37.280Z,101060.56
2022-12-18T17:59:04.336Z,101076.25
2022-12-18T18:01:31.044Z,101081.72
2022-12-18T18:03:57.893Z,101070.09
2022-12-18T18:06:24.575Z,101083.63
2022-12-18T18:08:51.582Z,101094.13
2022-12-18T18:11:38.544Z,101094.88
2022-12-18T18:14:08.644Z,101107.72
2022-12-18T18:16:41.381Z,101105.19
2022-12-18T18:19:11.027Z,101121.00
2022-12-18T18:21:42.968Z,101115.47
2022-12-18T18:24:11.083Z,101115.31
2022-12-18T18:26:38.251Z,101120.13
2022-12-18T18:29:06.880Z,101130.44
2022-12-18T18:31:40.899Z,101141.06
2022-12-18T18:34:08.726Z,101136.09
2022-12-18T18:36:35.384Z,101134.97
2022-12-18T18:39:02.299Z,101137.66
2022-12-18T18:41:30.628Z,101146.53
2022-12-18T18:43:58.714Z,101151.13
2022-12-18T18:46:26.026Z,101160.22
2022-12-18T18:48:52.914Z,101156.59
2022-12-18T18:51:21.304Z,101162.69
2022-12-18T18:53:50.357Z,101171.28
2022-12-18T18:56:56.287Z,101168.03
2022-12-18T18:59:06.421Z,101164.25
2022-12-18T19:01:33.202Z,101162.84
2022-12-18T19:04:03.127Z,101173.69
2022-12-18T19:06:29.922Z,101185.41
2022-12-18T19:08:58.357Z,101166.66
2022-12-18T19:11:44.473Z,101189.38
2022-12-18T19:14:13.236Z,101200.94
2022-12-18T19:16:40.220Z,101216.00
2022-12-18T19:19:07.888Z,101227.00
2022-12-18T19:21:35.262Z,101216.78
2022-12-18T19:24:02.762Z,101220.28
2022-12-18T19:26:30.232Z,101221.28
2022-12-18T19:29:04.792Z,101239.84
2022-12-18T19:31:35.689Z,101250.56
2022-12-18T19:34:04.935Z,101245.59
2022-12-18T19:36:32.931Z,101265.44
2022-12-18T19:39:01.627Z,101263.88
2022-12-18T19:41:31.101Z,101266.09
2022-12-18T19:43:58.584Z,101255.53
2022-12-18T19:46:25.459Z,101286.72
2022-12-18T19:48:52.189Z,101270.81
2022-12-18T19:51:22.522Z,101282.53
2022-12-18T19:53:53.568Z,101293.28
2022-12-18T19:56:25.601Z,101284.59
2022-12-18T19:58:53.290Z,101292.19
2022-12-18T20:01:21.960Z,101303.56
2022-12-18T20:03:51.902Z,101285.47
2022-12-18T20:06:27.453Z,101299.47
2022-12-18T20:09:00.126Z,101317.03
2022-12-18T20:11:28.460Z,101306.66
2022-12-18T20:13:55.132Z,101320.09
2022-12-18T20:16:21.809Z,101312.50
2022-12-18T20:18:49.233Z,101312.06
2022-12-18T20:21:16.141Z,101314.81
2022-12-18T20:23:43.297Z,101303.69
2022-12-18T20:26:10.656Z,101329.50
2022-12-18T20:28:37.242Z,101317.38
2022-12-18T20:31:13.711Z,101334.88
2022-12-18T20:33:42.359Z,101332.56
2022-12-18T20:36:14.275Z,101342.25
2022-12-18T20:38:42.254Z,101354.84
2022-12-18T20:41:17.212Z,101345.06
2022-12-18T20:43:44.698Z,101359.56
2022-12-18T20:46:13.538Z,101362.91
2022-12-18T20:48:40.383Z,101353.28
2022-12-18T20:51:10.732Z,101367.47
2022-12-18T20:53:37.661Z,101370.63
2022-12-18T20:56:14.927Z,101372.34
2022-12-18T20:58:45.081Z,101379.25
2022-12-18T21:01:14.116Z,101384.38
2022-12-18T21:03:41.911Z,101368.50
2022-12-18T21:06:09.109Z,101378.06
2022-12-18T21:08:36.271Z,101382.13
2022-12-18T21:11:38.433Z,101398.31
2022-12-18T21:14:13.916Z,101394.88
2022-12-18T21:16:40.447Z,101391.06
2022-12-18T21:19:07.124Z,101385.16
2022-12-18T21:21:35.057Z,101387.94
2022-12-18T21:24:05.722Z,101392.50
2022-12-18T21:26:32.590Z,101384.69
2022-12-18T21:29:02.619Z,101387.88
2022-12-18T21:31:31.363Z,101384.66
2022-12-18T21:34:02.148Z,101401.63
2022-12-18T21:36:29.477Z,101410.59
2022-12-18T21:38:56.658Z,101401.09
2022-12-18T21:41:42.564Z,101405.72
2022-12-18T21:44:11.225Z,101418.47
2022-12-18T21:46:40.454Z,101431.97
2022-12-18T21:49:08.629Z,101415.81
2022-12-18T21:51:35.898Z,101414.25
2022-12-18T21:54:03.192Z,101418.50
2022-12-18T21:56:52.048Z,101432.66
2022-12-18T21:59:21.250Z,101428.16
2022-12-18T22:01:48.717Z,101418.31
2022-12-18T22:04:16.075Z,101433.25
2022-12-18T22:06:42.914Z,101427.91
2022-12-18T22:09:11.511Z,101431.94
2022-12-18T22:11:38.258Z,101450.72
2022-12-18T22:14:04.930Z,101434.88
2022-12-18T22:16:31.548Z,101440.22
2022-12-18T22:18:58.062Z,101444.16
2022-12-18T22:21:29.917Z,101454.59
2022-12-18T22:23:58.789Z,101446.69
2022-12-18T22:26:26.488Z,101451.66
2022-12-18T22:29:12.109Z,101441.38
2022-12-18T22:31:39.424Z,101460.50
2022-12-18T22:34:06.562Z,101462.97
2022-12-18T22:36:40.102Z,101460.78
2022-12-18T22:39:09.378Z,101470.16
2022-12-18T22:41:35.965Z,101464.69
2022-12-18T22:44:02.693Z,101492.97
2022-12-18T22:46:31.825Z,101496.03
2022-12-18T22:48:58.788Z,101487.88
2022-12-18T22:51:25.485Z,101486.38
2022-12-18T22:53:52.250Z,101476.94
2022-12-18T22:56:21.863Z,101494.38
2022-12-18T22:58:49.466Z,101496.31
2022-12-18T23:01:22.187Z,101500.44
2022-12-18T23:03:50.050Z,101507.81
2022-12-18T23:06:17.344Z,101478.34
2022-12-18T23:08:44.399Z,101498.84
2022-12-18T23:11:12.083Z,101500.03
2022-12-18T23:13:39.705Z,101503.19
2022-12-18T23:16:24.548Z,101491.84
2022-12-18T23:18:55.305Z,101494.22
2022-12-18T23:21:23.249Z,101495.19
2022-12-18T23:23:50.895Z,101504.53
2022-12-18T23:26:20.323Z,101502.03
2022-12-18T23:28:46.941Z,101479.28
2022-12-18T23:31:19.525Z,101504.91
2022-12-18T23:33:47.257Z,101512.47
2022-12-18T23:36:14.790Z,101507.38
2022-12-18T23:38:41.850Z,101502.56
2022-12-18T23:41:10.501Z,101517.22
2022-12-18T23:43:37.718Z,101530.91
2022-12-18T23:46:10.657Z,101533.81
2022-12-18T23:48:37.235Z,101531.94
2022-12-18T23:51:11.255Z,101513.63
2022-12-18T23:53:38.005Z,101545.22
2022-12-18T23:56:10.465Z,101530.13
2022-12-18T23:58:38.062Z,101518.25
